createdAt,value
2022-08-30T00:02:47.440Z,25.40
2022-08-30T00:05:41.174Z,25.30
2022-08-30T00:08:32.661Z,25.20
2022-08-30T00:11:27.420Z,25.20
2022-08-30T00:14:34.006Z,25.20
2022-08-30T00:17:25.536Z,25.20
2022-08-30T00:20:28.937Z,25.10
2022-08-30T00:23:28.395Z,25.10
2022-08-30T00:29:00.373Z,25.00
2022-08-30T00:34:32.157Z,25.00
2022-08-30T00:37:23.603Z,24.90
2022-08-30T00:40:16.679Z,24.90
2022-08-30T00:43:13.877Z,24.90
2022-08-30T00:46:04.909Z,24.90
2022-08-30T00:48:57.435Z,24.90
2022-08-30T00:51:49.557Z,24.90
2022-08-30T00:54:43.505Z,24.90
2022-08-30T00:57:36.005Z,24.80
2022-08-30T01:00:27.315Z,24.80
2022-08-30T01:03:19.204Z,24.80
2022-08-30T01:06:10.963Z,24.80
2022-08-30T01:09:04.333Z,24.70
2022-08-30T01:14:35.173Z,24.30
2022-08-30T01:17:28.041Z,24.30
2022-08-30T01:20:23.829Z,24.30
2022-08-30T01:23:18.443Z,24.20
2022-08-30T01:26:10.522Z,24.10
2022-08-30T01:29:03.999Z,24.00
2022-08-30T01:31:55.166Z,24.00
2022-08-30T01:37:28.574Z,24.00
2022-08-30T01:40:19.892Z,24.00
2022-08-30T01:43:12.658Z,24.00
2022-08-30T01:46:03.758Z,24.00
2022-08-30T01:48:56.376Z,24.00
2022-08-30T01:51:47.556Z,24.00
2022-08-30T01:57:21.097Z,23.90
2022-08-30T02:00:14.459Z,23.90
2022-08-30T02:03:05.533Z,23.80
2022-08-30T02:05:56.673Z,23.60
2022-08-30T02:08:50.560Z,23.50
2022-08-30T02:11:42.563Z,23.30
2022-08-30T02:14:34.142Z,23.40
2022-08-30T02:20:09.015Z,23.20
2022-08-30T02:23:01.530Z,23.20
2022-08-30T02:25:53.017Z,23.20
2022-08-30T02:28:49.686Z,23.30
2022-08-30T02:34:19.633Z,23.20
2022-08-30T02:37:10.536Z,23.30
2022-08-30T02:40:11.375Z,23.30
2022-08-30T02:43:02.523Z,23.40
2022-08-30T02:45:54.537Z,23.30
2022-08-30T02:48:45.939Z,23.40
2022-08-30T02:54:28.469Z,23.50
2022-08-30T02:59:59.604Z,23.60
2022-08-30T03:02:50.707Z,23.60
2022-08-30T03:08:21.248Z,23.60
2022-08-30T03:11:13.848Z,23.60
2022-08-30T03:14:05.332Z,23.60
2022-08-30T03:16:56.647Z,23.60
2022-08-30T03:22:26.131Z,23.60
2022-08-30T03:25:22.081Z,23.60
2022-08-30T03:28:13.425Z,23.60
2022-08-30T03:31:13.101Z,23.60
2022-08-30T03:34:11.814Z,23.60
2022-08-30T03:37:03.393Z,23.60
2022-08-30T03:39:55.059Z,23.60
2022-08-30T03:42:46.654Z,23.50
2022-08-30T03:48:18.077Z,23.40
2022-08-30T03:53:57.961Z,23.40
2022-08-30T03:57:03.693Z,23.40
2022-08-30T04:02:35.123Z,23.40
2022-08-30T04:05:34.097Z,23.40
2022-08-30T04:08:25.954Z,23.40
2022-08-30T04:11:17.631Z,23.40
2022-08-30T04:14:09.482Z,23.40
2022-08-30T04:17:02.001Z,23.30
2022-08-30T04:22:31.583Z,23.20
2022-08-30T04:25:24.268Z,23.20
2022-08-30T04:28:15.942Z,23.20
2022-08-30T04:31:12.071Z,23.20
2022-08-30T04:34:03.418Z,23.20
2022-08-30T04:36:54.311Z,23.20
2022-08-30T04:39:46.622Z,23.10
2022-08-30T04:42:37.903Z,23.20
2022-08-30T04:48:08.245Z,23.20
2022-08-30T04:50:59.490Z,23.10
2022-08-30T04:53:50.331Z,23.00
2022-08-30T04:56:41.741Z,23.00
2022-08-30T05:02:28.767Z,23.00
2022-08-30T05:05:37.880Z,23.00
2022-08-30T05:08:33.214Z,23.00
2022-08-30T05:11:25.751Z,23.10
2022-08-30T05:14:17.149Z,23.20
2022-08-30T05:17:08.863Z,23.20
2022-08-30T05:20:02.521Z,23.30
2022-08-30T05:22:54.218Z,23.30
2022-08-30T05:25:46.404Z,23.30
2022-08-30T05:28:46.779Z,23.30
2022-08-30T05:31:45.072Z,23.30
2022-08-30T05:37:16.428Z,23.20
2022-08-30T05:40:11.200Z,23.20
2022-08-30T05:45:47.925Z,23.10
2022-08-30T05:48:41.165Z,23.20
2022-08-30T05:51:35.073Z,23.10
2022-08-30T05:54:37.515Z,23.10
2022-08-30T05:57:29.029Z,23.20
2022-08-30T06:00:21.661Z,23.20
2022-08-30T06:03:14.073Z,23.30
2022-08-30T06:06:08.598Z,23.40
2022-08-30T06:09:00.356Z,23.40
2022-08-30T06:11:52.369Z,23.50
2022-08-30T06:14:44.484Z,23.60
2022-08-30T06:17:35.975Z,23.60
2022-08-30T06:20:28.522Z,23.70
2022-08-30T06:23:23.993Z,23.80
2022-08-30T06:26:15.894Z,23.70
2022-08-30T06:29:07.537Z,23.80
2022-08-30T06:32:00.384Z,23.60
2022-08-30T06:34:51.770Z,23.60
2022-08-30T06:37:43.566Z,23.80
2022-08-30T06:40:43.515Z,23.70
2022-08-30T06:49:24.646Z,23.80
2022-08-30T06:52:16.130Z,23.80
2022-08-30T06:55:11.910Z,23.70
2022-08-30T06:58:03.714Z,23.70
2022-08-30T07:00:55.242Z,23.70
2022-08-30T07:03:50.565Z,23.80
2022-08-30T07:09:23.048Z,23.70
2022-08-30T07:12:15.673Z,23.70
2022-08-30T07:18:13.736Z,23.60
2022-08-30T07:21:12.024Z,23.50
2022-08-30T07:24:04.027Z,23.50
2022-08-30T07:26:59.840Z,23.50
2022-08-30T07:32:38.544Z,23.70
2022-08-30T07:35:29.858Z,23.70
2022-08-30T07:38:35.435Z,23.70
2022-08-30T07:41:35.851Z,23.70
2022-08-30T07:44:27.186Z,23.80
2022-08-30T07:47:22.545Z,23.90
2022-08-30T07:50:15.914Z,24.00
2022-08-30T07:53:10.677Z,24.10
2022-08-30T07:58:43.959Z,24.10
2022-08-30T08:01:37.330Z,24.10
2022-08-30T08:04:29.107Z,23.90
2022-08-30T08:07:21.733Z,24.00
2022-08-30T08:12:53.600Z,24.20
2022-08-30T08:15:53.901Z,24.30
2022-08-30T08:18:47.278Z,24.50
2022-08-30T08:24:24.425Z,24.70
2022-08-30T08:27:15.938Z,24.90
2022-08-30T08:32:47.874Z,25.10
2022-08-30T08:35:39.477Z,25.30
2022-08-30T08:41:39.926Z,25.60
2022-08-30T08:44:46.939Z,25.50
2022-08-30T08:50:20.248Z,25.60
2022-08-30T08:56:00.961Z,25.70
2022-08-30T08:58:54.599Z,25.80
2022-08-30T09:01:45.792Z,25.90
2022-08-30T09:07:18.467Z,26.10
2022-08-30T09:10:13.141Z,26.20
2022-08-30T09:13:08.889Z,26.20
2022-08-30T09:16:02.096Z,26.30
2022-08-30T09:21:46.980Z,26.40
2022-08-30T09:24:55.720Z,26.50
2022-08-30T09:30:31.484Z,26.70
2022-08-30T09:36:18.886Z,26.90
2022-08-30T09:41:58.034Z,27.20
2022-08-30T09:44:49.622Z,27.30
2022-08-30T09:47:45.326Z,27.30
2022-08-30T09:50:38.016Z,27.40
2022-08-30T09:53:34.638Z,27.60
2022-08-30T09:56:44.072Z,27.70
2022-08-30T10:02:50.342Z,27.80
2022-08-30T10:05:52.823Z,27.60
2022-08-30T10:08:53.177Z,27.50
2022-08-30T10:11:48.254Z,27.50
2022-08-30T10:15:04.202Z,27.70
2022-08-30T10:20:49.721Z,27.90
2022-08-30T10:23:56.554Z,27.90
2022-08-30T10:26:50.486Z,28.00
2022-08-30T10:29:46.665Z,28.10
2022-08-30T10:35:19.881Z,28.10
2022-08-30T10:41:14.858Z,28.10
2022-08-30T10:44:15.656Z,28.10
2022-08-30T10:47:14.469Z,28.30
2022-08-30T10:50:13.325Z,28.40
2022-08-30T10:53:08.328Z,28.50
2022-08-30T10:58:44.351Z,28.80
2022-08-30T11:01:46.462Z,29.00
2022-08-30T11:08:02.299Z,29.50
2022-08-30T11:10:58.266Z,29.60
2022-08-30T11:16:43.288Z,29.70
2022-08-30T11:19:41.014Z,29.90
2022-08-30T11:22:39.208Z,30.10
2022-08-30T11:25:57.941Z,29.80
2022-08-30T11:29:09.005Z,29.70
2022-08-30T11:32:03.255Z,29.80
2022-08-30T11:35:00.409Z,29.80
2022-08-30T11:40:55.620Z,29.40
2022-08-30T11:46:41.708Z,29.30
2022-08-30T11:49:52.613Z,29.40
2022-08-30T11:52:50.796Z,29.50
2022-08-30T11:56:06.140Z,29.70
2022-08-30T11:59:00.395Z,30.00
2022-08-30T12:01:52.359Z,30.30
2022-08-30T12:04:48.499Z,30.30
2022-08-30T12:08:01.980Z,30.40
2022-08-30T12:10:56.418Z,30.30
2022-08-30T12:13:56.323Z,30.10
2022-08-30T12:17:08.785Z,30.10
2022-08-30T12:26:10.906Z,29.90
2022-08-30T12:29:19.622Z,29.70
2022-08-30T12:37:57.240Z,29.20
2022-08-30T12:41:02.089Z,28.40
2022-08-30T12:43:58.151Z,26.00
2022-08-30T12:46:53.962Z,24.70
2022-08-30T12:49:46.348Z,24.40
2022-08-30T12:55:22.476Z,24.50
2022-08-30T12:58:15.916Z,24.90
2022-08-30T13:01:39.264Z,24.90
2022-08-30T13:04:33.066Z,25.10
2022-08-30T13:10:19.570Z,25.00
2022-08-30T13:13:23.105Z,24.90
2022-08-30T13:16:29.404Z,24.90
2022-08-30T13:22:25.815Z,25.20
2022-08-30T13:25:18.298Z,25.30
2022-08-30T13:28:10.135Z,25.40
2022-08-30T13:31:01.878Z,25.50
2022-08-30T13:33:58.467Z,25.50
2022-08-30T13:37:00.734Z,25.70
2022-08-30T13:39:53.058Z,25.60
2022-08-30T13:42:44.393Z,25.80
2022-08-30T13:45:49.905Z,25.80
2022-08-30T13:48:53.526Z,25.90
2022-08-30T13:52:03.454Z,26.00
2022-08-30T13:54:38.136Z,25.60
2022-08-30T14:00:14.538Z,25.90
2022-08-30T14:06:29.360Z,26.80
2022-08-30T14:09:07.682Z,27.20
2022-08-30T14:12:11.162Z,27.90
2022-08-30T14:15:04.517Z,29.30
2022-08-30T14:20:43.950Z,29.50
2022-08-30T14:23:59.844Z,28.50
2022-08-30T14:26:54.170Z,28.00
2022-08-30T14:29:46.404Z,27.60
2022-08-30T14:32:39.522Z,27.30
2022-08-30T14:35:32.326Z,27.10
2022-08-30T14:38:26.049Z,26.90
2022-08-30T14:44:05.908Z,26.50
2022-08-30T14:47:07.467Z,26.50
2022-08-30T14:50:02.054Z,26.20
2022-08-30T14:52:53.368Z,25.90
2022-08-30T14:58:25.049Z,25.50
2022-08-30T15:01:16.061Z,25.30
2022-08-30T15:04:09.059Z,25.20
2022-08-30T15:07:11.780Z,25.10
2022-08-30T15:12:41.952Z,25.10
2022-08-30T15:15:33.153Z,25.10
2022-08-30T15:18:24.492Z,24.90
2022-08-30T15:21:17.850Z,24.80
2022-08-30T15:24:24.835Z,24.70
2022-08-30T15:27:13.652Z,24.00
2022-08-30T15:30:07.237Z,23.60
2022-08-30T15:32:58.719Z,23.30
2022-08-30T15:35:57.996Z,23.30
2022-08-30T15:38:49.250Z,23.10
2022-08-30T15:41:43.808Z,23.00
2022-08-30T15:44:34.475Z,22.90
2022-08-30T15:50:25.004Z,22.80
2022-08-30T15:53:21.384Z,22.90
2022-08-30T15:56:13.225Z,22.80
2022-08-30T16:01:44.381Z,22.90
2022-08-30T16:04:36.551Z,22.90
2022-08-30T16:10:08.900Z,23.00
2022-08-30T16:15:40.644Z,22.90
2022-08-30T16:18:32.602Z,23.00
2022-08-30T16:21:39.386Z,22.90
2022-08-30T16:24:43.764Z,22.70
2022-08-30T16:30:22.413Z,22.70
2022-08-30T16:35:54.033Z,22.70
2022-08-30T16:41:33.484Z,22.80
2022-08-30T16:44:29.815Z,22.80
2022-08-30T16:50:05.208Z,22.60
2022-08-30T16:53:01.151Z,22.60
2022-08-30T16:55:53.975Z,22.50
2022-08-30T16:58:46.364Z,22.50
2022-08-30T17:01:39.396Z,22.60
2022-08-30T17:04:31.720Z,22.60
2022-08-30T17:07:23.083Z,22.60
2022-08-30T17:12:54.279Z,22.60
2022-08-30T17:15:48.001Z,22.60
2022-08-30T17:21:18.305Z,22.30
2022-08-30T17:26:51.230Z,22.30
2022-08-30T17:29:43.647Z,22.20
2022-08-30T17:35:14.899Z,22.10
2022-08-30T17:40:47.102Z,22.00
2022-08-30T17:43:41.448Z,22.00
2022-08-30T17:46:33.167Z,22.00
2022-08-30T17:52:07.012Z,22.10
2022-08-30T17:55:05.382Z,22.20
2022-08-30T17:57:57.415Z,22.30
2022-08-30T18:01:11.912Z,22.10
2022-08-30T18:04:10.682Z,22.10
2022-08-30T18:09:42.081Z,22.00
2022-08-30T18:12:34.157Z,21.80
2022-08-30T18:15:28.896Z,21.90
2022-08-30T18:18:20.536Z,22.00
2022-08-30T18:21:29.624Z,22.00
2022-08-30T18:24:38.024Z,21.90
2022-08-30T18:27:29.187Z,21.80
2022-08-30T18:30:20.656Z,21.80
2022-08-30T18:33:12.177Z,21.80
2022-08-30T18:36:04.882Z,21.70
2022-08-30T18:38:56.262Z,21.70
2022-08-30T18:44:36.724Z,21.80
2022-08-30T18:50:31.362Z,21.60
2022-08-30T18:53:28.429Z,21.30
2022-08-30T18:56:16.818Z,21.40
2022-08-30T18:59:17.005Z,21.30
2022-08-30T19:02:10.833Z,21.20
2022-08-30T19:05:05.884Z,21.20
2022-08-30T19:10:35.829Z,20.90
2022-08-30T19:13:27.229Z,20.90
2022-08-30T19:16:31.729Z,21.00
2022-08-30T19:19:26.472Z,21.10
2022-08-30T19:24:58.352Z,21.20
2022-08-30T19:30:41.782Z,21.40
2022-08-30T19:33:35.989Z,21.40
2022-08-30T19:36:30.825Z,21.40
2022-08-30T19:39:22.273Z,21.40
2022-08-30T19:42:15.242Z,21.50
2022-08-30T19:45:07.286Z,21.50
2022-08-30T19:48:00.196Z,21.50
2022-08-30T19:50:51.806Z,21.50
2022-08-30T19:56:24.080Z,21.50
2022-08-30T19:59:15.291Z,21.40
2022-08-30T20:02:09.223Z,21.40
2022-08-30T20:05:00.909Z,21.40
2022-08-30T20:07:52.321Z,21.30
2022-08-30T20:10:46.116Z,21.40
2022-08-30T20:13:37.112Z,21.40
2022-08-30T20:16:37.212Z,21.40
2022-08-30T20:19:27.459Z,21.30
2022-08-30T20:22:21.160Z,21.20
2022-08-30T20:25:15.899Z,21.10
2022-08-30T20:28:06.251Z,21.00
2022-08-30T20:30:58.627Z,21.00
2022-08-30T20:33:50.055Z,21.10
2022-08-30T20:36:41.653Z,21.20
2022-08-30T20:42:17.764Z,21.10
2022-08-30T20:45:19.558Z,21.10
2022-08-30T20:48:11.006Z,21.10
2022-08-30T20:51:04.537Z,21.20
2022-08-30T20:53:56.398Z,21.20
2022-08-30T20:56:47.765Z,21.20
2022-08-30T20:59:39.513Z,21.30
2022-08-30T21:02:30.668Z,21.30
2022-08-30T21:05:22.571Z,21.30
2022-08-30T21:08:14.180Z,21.20
2022-08-30T21:11:06.029Z,21.20
2022-08-30T21:13:57.631Z,21.20
2022-08-30T21:16:49.035Z,21.20
2022-08-30T21:19:43.772Z,21.10
2022-08-30T21:25:13.889Z,21.00
2022-08-30T21:28:05.932Z,21.00
2022-08-30T21:31:07.017Z,21.10
2022-08-30T21:33:59.254Z,21.00
2022-08-30T21:36:51.126Z,21.00
2022-08-30T21:42:23.667Z,20.80
2022-08-30T21:45:16.022Z,20.70
2022-08-30T21:48:07.446Z,20.70
2022-08-30T21:50:58.483Z,20.70
2022-08-30T21:53:49.726Z,20.60
2022-08-30T21:56:44.713Z,20.60
2022-08-30T22:02:22.632Z,20.50
2022-08-30T22:05:15.214Z,20.50
2022-08-30T22:10:47.756Z,20.50
2022-08-30T22:13:40.345Z,20.50
2022-08-30T22:16:36.190Z,20.40
2022-08-30T22:19:34.739Z,20.30
2022-08-30T22:22:25.617Z,20.40
2022-08-30T22:25:16.804Z,20.30
2022-08-30T22:30:52.735Z,20.10
2022-08-30T22:33:44.652Z,20.00
2022-08-30T22:36:38.188Z,20.10
2022-08-30T22:39:29.537Z,20.10
2022-08-30T22:42:21.798Z,19.90
2022-08-30T22:45:14.217Z,19.90
2022-08-30T22:50:44.748Z,20.00
2022-08-30T22:53:36.044Z,20.10
2022-08-30T22:56:28.398Z,20.10
2022-08-30T22:59:19.703Z,20.10
2022-08-30T23:02:19.524Z,20.10
2022-08-30T23:05:24.523Z,20.10
2022-08-30T23:10:58.090Z,20.20
2022-08-30T23:16:27.560Z,20.30
2022-08-30T23:19:23.420Z,20.30
2022-08-30T23:25:16.042Z,20.30
2022-08-30T23:28:30.473Z,20.30
2022-08-30T23:31:50.847Z,20.30
2022-08-30T23:35:00.763Z,20.30
2022-08-30T23:38:10.006Z,20.30
2022-08-30T23:41:19.196Z,20.40
2022-08-30T23:44:28.260Z,20.40
2022-08-30T23:47:37.170Z,20.40
2022-08-30T23:50:46.155Z,20.50
2022-08-30T23:53:55.583Z,20.50
2022-08-30T23:57:04.705Z,20.50
